Mojave, CA (93502)

1:18 AM PDT on April 02, 2015 (GMT -0700)
APRSWXNET | | Change Station
CLOSE
Current Station
Personal Weather Station
Location: Mojave, CA
Elevation: 2870 ft
Nearby Weather Stations
Active Advisory: Wind Advisory

Elev 2870 ft 35.07 °N, 118.18 °W | Updated 30 minutes ago

Clear
Clear
53 °F
Feels Like 53 °F
N
12
Wind Variable Wind from West
Gusts 21.0 mph

Today
High -- | Low -- °F
--% Chance of Precip.
Yesterday
High -- | Low -- °F
Precip. -- in
6:38 AM 7:14 PM
Waxing Gibbous, 96% visible
Pressure 29.96 in
Visibility 10.0 miles
Clouds Clear
Dew Point 32 °F
Humidity 45%
Rainfall in
Snow Depth Not available.
UV 0 out of 12
Pollen 10.10 out of 12
Air Quality Not available.
Flu Activity Not available.
METAR KMHV 020755Z AUTO 25016G25KT 10SM CLR 12/00 A2996 RMK AO1

More Conditions Fewer Conditions

Pressure 29.96 in
Visibility 10.0 miles
Clouds Clear
Dew Point 32 °F
Humidity 45%
Rainfall in
Snow Depth Not available.
UV 0 out of 12
Pollen 10.10 out of 12
Air Quality Not available.
Flu Activity Not available.
METAR KMHV 020755Z AUTO 25016G25KT 10SM CLR 12/00 A2996 RMK AO1

More Conditions Fewer Conditions

10-Day Weather Forecast

Almanac

Astronomy

Apr. 02, 2015 Rise Set
Actual Time
Civil Twilight
Nautical Twilight
Astronomical Twilight
Moon
Length of Visible Light
Length of Day
Tomorrow will be .
, % of the Moon is Illuminated

Today's Extremes

State Highs State Lows

Community

WunderPhotos

Upload Photos

1,810,206 photos uploaded!

WunderBlogs® & News

Nearby

Air Quality

  Air Quality AQ Index Pollutant
Not available.

Snow Depth

Station Depth Elevation

Earthquake Activity

City Distance Mag. Time & Date
Minimum magnitude displayed is 2.5.

Coastal Water Temperatures

Place Temperature

Stations

Nearby Weather Stations

Station Location Temp. Windchill Dew Point Humidity Wind Precip. Elev Updated Type
                   
Wind Advisory
Statement as of 8:52 PM PDT on April 01, 2015

... Wind Advisory remains in effect until 5 am PDT Thursday...

* winds... west 20 to 30 mph with gusts up to 50 mph.

* Timing... winds will pick up through the afternoon with the
strongest winds from 3 PM through 9 PM. Winds will gradually
decrease overnight.

* Impacts... blowing dust and sand are possible in the Kern
County desert areas below the passes... especially near Mojave
and along the Highway 14 corridor. Strong winds are possible
through the Tehachapi Pass along Highway 58.

Precautionary/preparedness actions...

A Wind Advisory means that winds of 45 mph are expected. Winds
this strong can make driving difficult... especially for high
profile vehicles. Use extra caution.



Dudley